Time;durP1;ratioP1;P1;durP2;ratioP2;P2;SDS_P1;SDS_P2;PMS_P1;PMS_P2;Temp;Humidity;BMP_temperature;BMP_pressure;BME280_temperature;BME280_humidity;BME280_pressure;Samples;Min_cycle;Max_cycle;Signal;HPM_P1;HPM_P2
2021/04/06 00:01:46;;;;;;;10.40;6.50;;;2.20;99.90;;;;;;5130459;27;20454;-65
2021/04/06 00:04:16;;;;;;;10.43;5.40;;;2.20;99.90;;;;;;5130482;28;20399;-65
2021/04/06 00:06:46;;;;;;;8.50;6.23;;;2.20;99.90;;;;;;5129612;27;20411;-66
2021/04/06 00:09:16;;;;;;;12.77;6.27;;;2.20;99.90;;;;;;5129301;28;20384;-66
2021/04/06 00:11:45;;;;;;;8.50;5.53;;;2.20;99.90;;;;;;5130475;28;20396;-66
2021/04/06 00:14:12;;;;;;;17.33;7.90;;;2.20;99.90;;;;;;5130426;27;20869;-66
2021/04/06 00:16:40;;;;;;;14.20;8.13;;;2.20;99.90;;;;;;5130270;27;20403;-66
2021/04/06 00:19:09;;;;;;;12.97;7.10;;;2.20;99.90;;;;;;5130157;27;20414;-66
2021/04/06 00:21:36;;;;;;;12.27;7.30;;;2.10;99.90;;;;;;5129961;27;20463;-66
2021/04/06 00:24:03;;;;;;;10.30;6.27;;;2.10;99.90;;;;;;5129402;27;20412;-66
2021/04/06 00:26:52;;;;;;;12.93;6.47;;;2.10;99.90;;;;;;5130168;27;20396;-66
2021/04/06 00:29:19;;;;;;;12.60;7.20;;;2.10;99.90;;;;;;5130364;28;20400;-66
2021/04/06 00:31:48;;;;;;;12.57;7.03;;;2.20;99.90;;;;;;5102582;28;20413;-66
2021/04/06 00:34:16;;;;;;;14.50;7.50;;;2.10;99.90;;;;;;5099272;28;20761;-66
2021/04/06 00:36:43;;;;;;;9.30;5.90;;;2.20;99.90;;;;;;5096217;28;20394;-66
2021/04/06 00:39:10;;;;;;;10.17;6.20;;;2.20;99.90;;;;;;5096434;28;20449;-66
2021/04/06 00:41:36;;;;;;;15.17;11.17;;;2.20;99.90;;;;;;5095931;28;20451;-66
2021/04/06 00:44:12;;;;;;;16.43;12.17;;;2.20;99.90;;;;;;5095798;28;20381;-66
2021/04/06 00:46:42;;;;;;;23.20;14.60;;;2.10;99.90;;;;;;5095542;28;20428;-66
2021/04/06 00:49:11;;;;;;;19.03;15.17;;;2.10;99.90;;;;;;5095514;28;20397;-66
2021/04/06 00:51:38;;;;;;;23.57;16.10;;;2.20;99.90;;;;;;5095639;28;20381;-66
2021/04/06 00:54:07;;;;;;;22.70;15.50;;;2.10;99.90;;;;;;5095792;28;20385;-66
2021/04/06 00:56:39;;;;;;;30.03;17.03;;;2.10;99.90;;;;;;5096115;28;20447;-66
2021/04/06 00:59:07;;;;;;;23.07;16.67;;;2.20;99.90;;;;;;5095420;28;20386;-66
2021/04/06 01:01:37;;;;;;;29.20;17.67;;;2.20;99.90;;;;;;5095399;28;20445;-66
2021/04/06 01:04:07;;;;;;;27.40;16.87;;;2.20;99.90;;;;;;5094516;28;20389;-66
2021/04/06 01:06:51;;;;;;;19.43;15.63;;;2.30;99.90;;;;;;5094054;28;20454;-66
2021/04/06 01:09:16;;;;;;;24.90;15.57;;;2.30;99.90;;;;;;5095464;28;21024;-66
2021/04/06 01:11:43;;;;;;;22.87;13.83;;;2.30;99.90;;;;;;5095202;28;20421;-66
2021/04/06 01:14:15;;;;;;;25.30;14.20;;;2.30;99.90;;;;;;5095688;28;20179;-66
2021/04/06 01:16:40;;;;;;;31.87;13.27;;;2.40;99.90;;;;;;5095000;28;20436;-66
2021/04/06 01:19:06;;;;;;;18.30;11.33;;;2.40;99.90;;;;;;5095330;28;20397;-66
2021/04/06 01:21:33;;;;;;;18.70;9.77;;;2.40;99.90;;;;;;5094747;28;20301;-66
2021/04/06 01:23:58;;;;;;;24.50;9.97;;;2.40;99.90;;;;;;5094991;28;20167;-66
2021/04/06 01:26:24;;;;;;;19.90;12.37;;;2.40;99.90;;;;;;5095097;28;20412;-66
2021/04/06 01:28:51;;;;;;;19.77;8.87;;;2.50;99.90;;;;;;5095030;28;20163;-66
2021/04/06 01:31:17;;;;;;;20.23;10.73;;;2.50;99.90;;;;;;5100353;28;20423;-66
2021/04/06 01:33:43;;;;;;;21.13;9.00;;;2.50;99.90;;;;;;5115420;28;20453;-66
2021/04/06 01:36:09;;;;;;;21.73;11.17;;;2.50;99.90;;;;;;5115321;28;20683;-66
2021/04/06 01:38:40;;;;;;;21.27;11.10;;;2.60;99.90;;;;;;5114176;28;20518;-66
2021/04/06 01:41:06;;;;;;;32.53;14.77;;;2.60;99.90;;;;;;5115177;28;20623;-66
2021/04/06 01:43:32;;;;;;;16.20;10.87;;;2.60;99.90;;;;;;5115301;28;20389;-66
2021/04/06 01:46:04;;;;;;;26.83;12.50;;;2.60;99.90;;;;;;5113979;28;20520;-66
2021/04/06 01:48:32;;;;;;;28.70;11.83;;;2.60;99.90;;;;;;5113758;27;20909;-66
2021/04/06 01:50:59;;;;;;;19.87;9.77;;;2.60;99.90;;;;;;5115013;27;20407;-66
2021/04/06 01:53:25;;;;;;;29.43;12.20;;;2.60;99.90;;;;;;5114878;28;20755;-66
2021/04/06 01:55:57;;;;;;;21.43;9.50;;;2.60;99.90;;;;;;5114655;28;20400;-66
2021/04/06 01:58:25;;;;;;;19.37;9.20;;;2.60;99.90;;;;;;5114600;28;20457;-66
2021/04/06 02:03:33;;;;;;;14.93;9.00;;;2.60;99.90;;;;;;5110888;27;20548;-66
2021/04/06 02:06:00;;;;;;;24.43;11.57;;;2.60;99.90;;;;;;5091627;28;20817;-66
2021/04/06 02:08:28;;;;;;;24.10;10.93;;;2.60;99.90;;;;;;5090484;28;20393;-66
2021/04/06 02:10:54;;;;;;;20.77;11.03;;;2.60;99.90;;;;;;5090291;28;20428;-66
2021/04/06 02:13:20;;;;;;;22.30;11.27;;;2.60;99.90;;;;;;5089327;28;20721;-66
2021/04/06 02:18:31;;;;;;;16.60;9.80;;;2.60;99.90;;;;;;5110766;27;20506;-65
2021/04/06 02:21:00;;;;;;;17.13;11.20;;;2.60;99.90;;;;;;5107831;28;20427;-65
2021/04/06 02:23:35;;;;;;;24.80;11.23;;;2.60;99.90;;;;;;5090389;28;20382;-65
2021/04/06 02:26:00;;;;;;;18.70;11.53;;;2.60;99.90;;;;;;5090454;28;20852;-65
2021/04/06 02:28:26;;;;;;;26.27;10.87;;;2.60;99.90;;;;;;5090029;28;20396;-65
2021/04/06 02:30:55;;;;;;;16.57;11.00;;;2.60;99.90;;;;;;5098620;28;20179;-65
2021/04/06 02:33:34;;;;;;;21.00;11.07;;;2.60;99.90;;;;;;5110798;28;20166;-65
2021/04/06 02:38:41;;;;;;;10.13;8.93;;;2.70;99.90;;;;;;5103538;27;20511;-65
2021/04/06 02:43:52;;;;;;;13.07;9.90;;;2.70;99.90;;;;;;5131231;27;20553;-66
2021/04/06 02:46:24;;;;;;;17.50;11.70;;;2.70;99.90;;;;;;5129791;28;20819;-66
2021/04/06 02:48:50;;;;;;;15.33;11.20;;;2.70;99.90;;;;;;5130222;28;20418;-66
2021/04/06 02:51:17;;;;;;;13.73;11.90;;;2.70;99.90;;;;;;5132103;27;20384;-65
2021/04/06 02:53:46;;;;;;;22.23;15.63;;;2.70;99.90;;;;;;5131349;27;20439;-65
2021/04/06 02:56:27;;;;;;;23.50;16.17;;;2.70;99.90;;;;;;5118600;27;20458;-65
2021/04/06 02:58:53;;;;;;;22.57;16.67;;;2.70;99.90;;;;;;5110433;28;20406;-65
2021/04/06 03:01:19;;;;;;;18.10;16.30;;;2.70;99.90;;;;;;5110272;28;20381;-65
2021/04/06 03:03:44;;;;;;;19.17;15.80;;;2.70;99.90;;;;;;5110416;28;20246;-65
2021/04/06 03:08:45;;;;;;;17.10;13.60;;;2.70;99.90;;;;;;5110970;27;20522;-65
2021/04/06 03:11:12;;;;;;;17.00;13.70;;;2.70;99.90;;;;;;5110550;28;20465;-65
2021/04/06 03:13:41;;;;;;;14.73;10.53;;;2.60;99.90;;;;;;5094824;28;20171;-65
2021/04/06 03:16:08;;;;;;;14.63;10.00;;;2.60;99.90;;;;;;5090242;28;20394;-65
2021/04/06 03:18:36;;;;;;;13.80;9.17;;;2.60;99.90;;;;;;5072327;28;20511;-65
2021/04/06 03:21:05;;;;;;;14.23;8.63;;;2.50;99.90;;;;;;5090604;28;20392;-65
2021/04/06 03:23:32;;;;;;;12.23;7.73;;;2.50;99.90;;;;;;5090440;28;20422;-65
2021/04/06 03:25:59;;;;;;;11.20;7.00;;;2.50;99.90;;;;;;5090102;28;20442;-65
2021/04/06 03:28:32;;;;;;;13.93;7.40;;;2.50;99.90;;;;;;5090062;28;20485;-65
2021/04/06 03:31:17;;;;;;;10.43;5.90;;;2.50;99.90;;;;;;5101151;28;20414;-65
2021/04/06 03:33:45;;;;;;;7.03;5.30;;;2.50;99.90;;;;;;5092927;28;20387;-65
2021/04/06 03:36:29;;;;;;;9.50;5.40;;;2.50;99.90;;;;;;5092452;28;20403;-65
2021/04/06 03:38:57;;;;;;;7.43;5.40;;;2.50;99.90;;;;;;5110257;28;20401;-65
2021/04/06 03:41:25;;;;;;;11.70;6.70;;;2.50;99.90;;;;;;5110280;28;20397;-65
2021/04/06 03:43:52;;;;;;;12.97;7.60;;;2.50;99.90;;;;;;5110114;28;20407;-66
2021/04/06 03:46:24;;;;;;;12.47;8.57;;;2.50;99.90;;;;;;5109283;28;20573;-65
2021/04/06 03:48:51;;;;;;;14.60;8.47;;;2.40;99.90;;;;;;5110572;28;20400;-65
2021/04/06 03:51:32;;;;;;;12.17;9.73;;;2.40;99.90;;;;;;5110004;28;20377;-65
2021/04/06 03:53:58;;;;;;;14.50;10.00;;;2.40;99.90;;;;;;5110219;28;20376;-65
2021/04/06 03:56:32;;;;;;;16.63;9.57;;;2.40;99.90;;;;;;5109839;28;20413;-65
2021/04/06 03:59:02;;;;;;;18.80;11.70;;;2.50;99.90;;;;;;5109901;28;20211;-65
2021/04/06 04:01:28;;;;;;;20.00;13.17;;;2.50;99.90;;;;;;5110121;28;20909;-65
2021/04/06 04:03:55;;;;;;;19.53;13.37;;;2.40;99.90;;;;;;5109128;28;20441;-65
2021/04/06 04:06:26;;;;;;;21.20;13.97;;;2.40;99.90;;;;;;5109774;28;20411;-65
2021/04/06 04:08:53;;;;;;;22.73;14.43;;;2.50;99.90;;;;;;5109684;28;20540;-65
2021/04/06 04:11:20;;;;;;;33.80;15.53;;;2.50;99.90;;;;;;5109563;28;20397;-65
2021/04/06 04:13:45;;;;;;;27.90;16.77;;;2.50;99.90;;;;;;5109998;28;20469;-65
2021/04/06 04:16:11;;;;;;;26.50;17.50;;;2.50;99.90;;;;;;5109971;28;20388;-65
2021/04/06 04:18:36;;;;;;;28.13;18.20;;;2.50;99.90;;;;;;5104555;28;20285;-65
2021/04/06 04:21:03;;;;;;;28.90;18.07;;;2.50;99.90;;;;;;5095109;28;20177;-65
2021/04/06 04:23:30;;;;;;;23.50;15.70;;;2.60;99.90;;;;;;5095913;28;20162;-65
2021/04/06 04:25:55;;;;;;;28.43;16.07;;;2.50;99.90;;;;;;5095909;28;20901;-65
2021/04/06 04:28:21;;;;;;;21.13;14.90;;;2.60;99.90;;;;;;5095904;28;20447;-65
2021/04/06 04:30:47;;;;;;;21.00;14.40;;;2.60;99.90;;;;;;5078208;28;20169;-65
2021/04/06 04:33:13;;;;;;;22.80;16.17;;;2.60;99.90;;;;;;5075641;28;20326;-65
2021/04/06 04:35:39;;;;;;;18.67;14.83;;;2.60;99.90;;;;;;5075611;28;20928;-65
2021/04/06 04:38:08;;;;;;;25.60;14.60;;;2.60;99.90;;;;;;5076167;28;20206;-65
2021/04/06 04:40:34;;;;;;;26.27;13.43;;;2.70;99.90;;;;;;5075318;28;20438;-65
2021/04/06 04:43:00;;;;;;;22.73;13.30;;;2.70;99.90;;;;;;5075315;28;20395;-65
2021/04/06 04:45:26;;;;;;;24.27;11.93;;;2.70;99.90;;;;;;5075489;28;20395;-65
2021/04/06 04:47:52;;;;;;;23.33;11.63;;;2.70;99.90;;;;;;5075064;28;20195;-65
2021/04/06 04:50:19;;;;;;;23.77;12.90;;;2.60;99.90;;;;;;5075202;28;20201;-65
2021/04/06 04:52:46;;;;;;;21.30;14.50;;;2.60;99.90;;;;;;5075280;28;20883;-65
2021/04/06 04:55:14;;;;;;;20.57;13.80;;;2.70;99.90;;;;;;5075779;28;20410;-65
2021/04/06 04:57:40;;;;;;;24.67;14.03;;;2.70;99.90;;;;;;5075066;28;20383;-65
2021/04/06 05:00:06;;;;;;;22.50;15.73;;;2.70;99.90;;;;;;5075358;28;20470;-65
2021/04/06 05:02:32;;;;;;;26.50;13.40;;;2.70;99.90;;;;;;5074932;28;20392;-65
2021/04/06 05:04:58;;;;;;;22.00;11.90;;;2.70;99.90;;;;;;5074789;28;20459;-65
2021/04/06 05:07:23;;;;;;;19.37;12.03;;;2.60;99.90;;;;;;5074702;28;20203;-65
2021/04/06 05:09:49;;;;;;;19.37;12.00;;;2.60;99.90;;;;;;5074830;28;20288;-65
2021/04/06 05:12:15;;;;;;;16.93;12.20;;;2.50;99.90;;;;;;5075376;28;20501;-65
2021/04/06 05:14:40;;;;;;;12.20;8.60;;;2.40;99.90;;;;;;5075155;28;20163;-65
2021/04/06 05:17:06;;;;;;;10.87;8.27;;;2.40;99.90;;;;;;5074694;28;20167;-65
2021/04/06 05:19:31;;;;;;;12.13;7.90;;;2.30;99.90;;;;;;5074554;28;20162;-65
2021/04/06 05:21:57;;;;;;;10.13;6.70;;;2.30;99.90;;;;;;5074549;28;20166;-65
2021/04/06 05:24:22;;;;;;;16.73;6.80;;;2.30;99.90;;;;;;5074500;28;20168;-65
2021/04/06 05:26:48;;;;;;;11.87;6.60;;;2.30;99.90;;;;;;5074849;28;20198;-65
2021/04/06 05:29:14;;;;;;;14.33;7.10;;;2.30;99.90;;;;;;5079831;28;20171;-65
2021/04/06 05:31:39;;;;;;;18.10;6.97;;;2.20;99.90;;;;;;5093670;28;20382;-65
2021/04/06 05:34:05;;;;;;;10.93;6.40;;;2.20;99.90;;;;;;5094697;28;20284;-65
2021/04/06 05:36:31;;;;;;;14.23;6.97;;;2.30;99.90;;;;;;5094991;28;20567;-65
2021/04/06 05:38:56;;;;;;;18.13;7.83;;;2.30;99.90;;;;;;5094494;28;20163;-65
2021/04/06 05:41:23;;;;;;;12.47;8.10;;;2.30;99.90;;;;;;5095255;28;20212;-65
2021/04/06 05:43:58;;;;;;;15.90;9.23;;;2.30;99.90;;;;;;5094451;28;20166;-65
2021/04/06 05:46:25;;;;;;;15.03;9.10;;;2.30;99.90;;;;;;5093238;28;20441;-65
2021/04/06 05:48:52;;;;;;;18.57;12.30;;;2.30;99.90;;;;;;5094606;28;20394;-65
2021/04/06 05:51:18;;;;;;;26.87;13.53;;;2.30;99.90;;;;;;5094431;28;20395;-65
2021/04/06 05:53:44;;;;;;;21.47;13.50;;;2.30;99.90;;;;;;5094192;28;20384;-65
2021/04/06 05:56:09;;;;;;;21.70;13.47;;;2.30;99.90;;;;;;5094832;28;20786;-66
2021/04/06 05:58:35;;;;;;;20.70;13.07;;;2.40;99.90;;;;;;5093923;28;20429;-65
2021/04/06 06:01:01;;;;;;;17.23;13.47;;;2.40;99.90;;;;;;5094038;28;20174;-65
2021/04/06 06:03:27;;;;;;;29.63;16.10;;;2.50;99.90;;;;;;5093326;28;20602;-65
2021/04/06 06:05:52;;;;;;;24.03;14.10;;;2.50;99.90;;;;;;5094073;28;20189;-65
2021/04/06 06:08:19;;;;;;;23.83;13.90;;;2.50;99.90;;;;;;5093828;28;20476;-65
2021/04/06 06:10:44;;;;;;;18.73;11.93;;;2.60;99.90;;;;;;5094348;28;20264;-65
2021/04/06 06:13:19;;;;;;;17.73;12.67;;;2.70;99.90;;;;;;5093839;28;20451;-65
2021/04/06 06:16:21;;;;;;;22.33;14.13;;;2.70;99.90;;;;;;5093792;28;20210;-65
2021/04/06 06:21:47;;;;;;;32.80;16.63;;;2.70;99.90;;;;;;5111464;27;20919;-66
2021/04/06 06:27:22;;;;;;;24.20;13.43;;;2.70;99.90;;;;;;5131485;27;20573;-65
2021/04/06 06:29:49;;;;;;;21.57;12.50;;;2.80;99.90;;;;;;5132083;27;20438;-65
2021/04/06 06:32:22;;;;;;;25.77;11.63;;;2.80;99.90;;;;;;5131271;27;20444;-65
2021/04/06 06:34:49;;;;;;;21.17;11.47;;;2.90;99.90;;;;;;5131216;28;20383;-65
2021/04/06 06:37:23;;;;;;;22.50;12.07;;;2.90;99.90;;;;;;5130833;27;20391;-65
2021/04/06 06:42:36;;;;;;;23.40;12.60;;;3.00;99.90;;;;;;5131927;27;20511;-65
2021/04/06 06:45:20;;;;;;;20.90;12.70;;;3.20;99.90;;;;;;5131489;27;20852;-65
2021/04/06 06:47:54;;;;;;;22.30;12.87;;;3.20;99.90;;;;;;5110862;28;20386;-65
2021/04/06 06:50:20;;;;;;;17.60;10.40;;;3.20;99.90;;;;;;5110722;28;20364;-65
2021/04/06 06:52:53;;;;;;;17.60;11.67;;;3.20;99.90;;;;;;5110649;28;20388;-65
2021/04/06 06:55:21;;;;;;;17.00;11.73;;;3.20;99.90;;;;;;5090340;28;20867;-65
2021/04/06 06:57:48;;;;;;;22.00;14.20;;;3.20;99.90;;;;;;5090439;28;20427;-65
2021/04/06 07:00:19;;;;;;;26.53;14.83;;;3.10;99.90;;;;;;5090246;28;20741;-65
2021/04/06 07:02:45;;;;;;;23.20;15.63;;;3.10;99.90;;;;;;5089050;28;20397;-65
2021/04/06 07:05:21;;;;;;;26.20;14.97;;;3.10;99.90;;;;;;5090232;28;20411;-65
2021/04/06 07:10:24;;;;;;;17.20;11.53;;;3.10;99.90;;;;;;5126271;27;20513;-66
2021/04/06 07:15:37;;;;;;;14.40;9.43;;;3.20;99.90;;;;;;5110788;27;21053;-66
2021/04/06 07:18:07;;;;;;;11.87;8.20;;;3.20;99.90;;;;;;5110808;28;20442;-65
2021/04/06 07:20:37;;;;;;;10.90;8.20;;;3.30;99.90;;;;;;5111177;28;20404;-64
2021/04/06 07:23:07;;;;;;;11.00;8.40;;;3.40;99.90;;;;;;5111179;28;20409;-65
2021/04/06 07:25:34;;;;;;;10.40;8.80;;;3.50;99.90;;;;;;5110829;28;20380;-66
2021/04/06 07:28:01;;;;;;;13.23;9.20;;;3.60;99.90;;;;;;5102699;28;20396;-65
2021/04/06 07:30:27;;;;;;;9.07;8.20;;;3.70;99.90;;;;;;5110614;28;20361;-64
2021/04/06 07:32:53;;;;;;;8.47;6.63;;;3.90;99.90;;;;;;5110710;28;20385;-64
2021/04/06 07:35:19;;;;;;;10.07;7.63;;;4.00;99.90;;;;;;5111038;28;20436;-64
2021/04/06 07:37:45;;;;;;;11.40;6.50;;;4.00;99.90;;;;;;5110642;28;20834;-64
2021/04/06 07:40:15;;;;;;;10.60;6.60;;;4.10;99.90;;;;;;5110372;28;20400;-64
2021/04/06 07:42:42;;;;;;;10.30;6.20;;;4.00;99.90;;;;;;5110372;28;20390;-66
2021/04/06 07:48:40;;;;;;;17.00;9.30;;;4.30;99.90;;;;;;5070442;28;20516;-65
2021/04/06 07:51:18;;;;;;;16.73;10.83;;;4.50;99.90;;;;;;5069519;28;20406;-65
2021/04/06 07:53:54;;;;;;;14.53;9.50;;;4.60;99.90;;;;;;5070183;28;20723;-65
2021/04/06 08:09:58;;;;;;;11.40;7.80;;;4.60;99.90;;;;;;5110902;27;20508;-65
2021/04/06 08:12:26;;;;;;;11.80;7.30;;;5.40;99.90;;;;;;5093249;28;20382;-65
2021/04/06 08:14:59;;;;;;;11.50;7.00;;;5.50;99.90;;;;;;5110790;28;20386;-66
2021/04/06 08:20:30;;;;;;;14.37;5.97;;;5.60;99.90;;;;;;5091758;27;20855;-65
2021/04/06 08:23:00;;;;;;;12.80;5.33;;;5.40;99.90;;;;;;5072393;28;20408;-65
2021/04/06 08:25:44;;;;;;;10.57;5.27;;;5.40;99.90;;;;;;5090384;28;20386;-65
2021/04/06 08:31:19;;;;;;;8.63;4.60;;;5.30;99.90;;;;;;5111203;27;20504;-65
2021/04/06 08:33:44;;;;;;;10.70;5.00;;;5.40;99.90;;;;;;5111063;28;20399;-65
2021/04/06 08:36:10;;;;;;;6.73;4.33;;;5.50;99.90;;;;;;5098596;28;20407;-65
2021/04/06 08:41:30;;;;;;;11.33;4.70;;;5.70;99.90;;;;;;5111016;27;20509;-65
2021/04/06 08:43:59;;;;;;;8.53;4.27;;;6.30;99.90;;;;;;5110942;28;20512;-65
2021/04/06 08:46:42;;;;;;;12.57;4.13;;;6.60;99.90;;;;;;5111329;28;20474;-65
2021/04/06 08:49:25;;;;;;;8.37;4.53;;;6.90;99.90;;;;;;5109888;28;20383;-65
2021/04/06 08:51:57;;;;;;;8.70;4.40;;;7.00;99.90;;;;;;5109449;28;20893;-65
2021/04/06 08:54:29;;;;;;;9.60;4.30;;;7.20;99.90;;;;;;5090363;28;20476;-65
2021/04/06 08:56:59;;;;;;;9.23;4.53;;;7.40;99.90;;;;;;5090346;28;20385;-65
2021/04/06 08:59:35;;;;;;;10.03;4.00;;;7.40;99.90;;;;;;5090338;28;20822;-65
2021/04/06 09:02:04;;;;;;;9.63;4.97;;;7.40;99.90;;;;;;5089419;28;20464;-65
2021/04/06 09:04:33;;;;;;;12.93;6.20;;;7.70;99.90;;;;;;5090117;28;20442;-65
2021/04/06 09:06:59;;;;;;;9.17;4.07;;;7.80;99.90;;;;;;5090163;28;20866;-65
2021/04/06 09:09:27;;;;;;;7.13;4.00;;;8.00;99.90;;;;;;5090637;28;20410;-65
2021/04/06 09:11:56;;;;;;;10.60;5.10;;;8.10;99.90;;;;;;5090289;28;20523;-65
2021/04/06 09:14:24;;;;;;;12.27;5.80;;;8.00;99.90;;;;;;5088966;28;20390;-65
2021/04/06 09:16:52;;;;;;;18.33;6.70;;;7.80;99.90;;;;;;5089982;28;20394;-65
2021/04/06 09:19:18;;;;;;;8.27;3.27;;;7.50;99.90;;;;;;5089759;28;20449;-65
2021/04/06 09:21:47;;;;;;;4.87;3.23;;;7.30;99.90;;;;;;5089779;28;20405;-65
2021/04/06 09:24:14;;;;;;;6.00;3.20;;;7.10;99.90;;;;;;5089844;28;20425;-65
2021/04/06 09:26:41;;;;;;;6.37;3.00;;;7.20;99.90;;;;;;5090344;28;20462;-65
2021/04/06 09:29:13;;;;;;;9.63;2.90;;;7.40;99.90;;;;;;5090323;28;20938;-65
2021/04/06 09:31:43;;;;;;;9.43;2.80;;;7.70;99.90;;;;;;5088746;28;20815;-65
2021/04/06 09:36:58;;;;;;;8.73;2.97;;;7.70;99.90;;;;;;5131540;27;20504;-65
2021/04/06 09:39:25;;;;;;;8.03;2.73;;;7.70;99.90;;;;;;5131513;28;20801;-65
2021/04/06 09:41:51;;;;;;;7.10;3.03;;;7.60;99.90;;;;;;5131547;28;20971;-65
2021/04/06 09:44:20;;;;;;;5.40;3.50;;;7.60;99.90;;;;;;5118376;28;20439;-65
2021/04/06 09:46:48;;;;;;;5.27;3.07;;;7.60;99.90;;;;;;5110563;28;20196;-65
2021/04/06 09:49:15;;;;;;;5.47;2.80;;;7.60;99.90;;;;;;5110688;28;20376;-65
2021/04/06 09:51:46;;;;;;;3.40;2.53;;;7.60;99.90;;;;;;5111089;28;20376;-65
2021/04/06 09:54:12;;;;;;;8.17;2.50;;;7.50;99.90;;;;;;5110812;28;20388;-65
2021/04/06 09:56:39;;;;;;;10.47;2.30;;;7.40;99.90;;;;;;5110801;28;20444;-65
2021/04/06 09:59:07;;;;;;;4.67;2.83;;;7.30;99.90;;;;;;5110997;28;20380;-65
2021/04/06 10:01:32;;;;;;;4.53;2.50;;;7.20;99.90;;;;;;5111005;28;20772;-65
2021/04/06 10:04:01;;;;;;;11.30;2.80;;;7.10;99.90;;;;;;5110383;28;20393;-65
2021/04/06 10:06:37;;;;;;;5.73;3.07;;;7.00;99.90;;;;;;5110601;28;20245;-65
2021/04/06 10:09:24;;;;;;;5.03;2.70;;;6.90;99.90;;;;;;5110305;28;20794;-65
2021/04/06 10:11:51;;;;;;;4.80;2.70;;;6.90;99.90;;;;;;5109771;28;20868;-65
2021/04/06 10:14:18;;;;;;;7.87;3.07;;;6.90;99.90;;;;;;5110237;28;20400;-65
2021/04/06 10:16:44;;;;;;;3.77;2.20;;;6.90;99.90;;;;;;5110264;28;20535;-65
2021/04/06 10:19:27;;;;;;;4.73;2.90;;;7.10;99.90;;;;;;5109452;28;20440;-65
2021/04/06 10:24:42;;;;;;;4.10;2.10;;;7.30;99.90;;;;;;5111180;27;20510;-65
2021/04/06 10:27:13;;;;;;;7.43;3.50;;;7.40;99.90;;;;;;5111160;28;20388;-65
2021/04/06 10:29:39;;;;;;;4.00;2.53;;;7.40;99.90;;;;;;5110680;28;20419;-65
2021/04/06 10:32:05;;;;;;;5.13;2.80;;;7.30;99.90;;;;;;5111089;28;20377;-65
2021/04/06 10:34:32;;;;;;;8.30;2.80;;;7.30;99.90;;;;;;5109849;28;20404;-65
2021/04/06 10:37:02;;;;;;;7.60;3.50;;;7.20;99.90;;;;;;5110578;28;20380;-65
2021/04/06 10:42:14;;;;;;;2.53;1.97;;;7.10;99.90;;;;;;5131347;27;20515;-65
2021/04/06 10:44:42;;;;;;;3.17;1.80;;;7.20;99.90;;;;;;5131611;28;20443;-65
2021/04/06 10:47:08;;;;;;;2.83;1.60;;;7.40;99.90;;;;;;5130111;28;20416;-65
2021/04/06 10:49:34;;;;;;;3.10;1.67;;;7.40;99.90;;;;;;5131443;28;20403;-65
2021/04/06 10:52:07;;;;;;;2.27;1.60;;;7.40;99.90;;;;;;5120389;27;20409;-65
2021/04/06 10:54:33;;;;;;;3.30;2.07;;;7.30;99.90;;;;;;5109595;28;20156;-65
2021/04/06 10:56:59;;;;;;;3.77;3.47;;;7.20;99.90;;;;;;5110462;28;20387;-65
2021/04/06 10:59:29;;;;;;;3.80;2.00;;;7.20;99.90;;;;;;5110652;28;20636;-65
2021/04/06 11:01:56;;;;;;;3.10;1.80;;;7.10;99.90;;;;;;5110611;28;20209;-65
2021/04/06 11:04:25;;;;;;;2.40;1.80;;;7.10;99.90;;;;;;5110507;28;20755;-65
2021/04/06 11:06:58;;;;;;;3.27;1.80;;;7.10;99.90;;;;;;5109239;28;20489;-65
2021/04/06 11:09:27;;;;;;;2.13;1.73;;;7.30;99.90;;;;;;5110852;28;20907;-66
2021/04/06 11:11:55;;;;;;;2.93;1.97;;;7.40;99.90;;;;;;5109088;28;20528;-65
2021/04/06 11:14:25;;;;;;;4.70;2.80;;;7.60;99.90;;;;;;5110512;28;20389;-65
2021/04/06 11:16:52;;;;;;;3.47;2.10;;;7.70;99.90;;;;;;5110248;28;20423;-65
2021/04/06 11:22:04;;;;;;;4.93;2.00;;;7.80;99.90;;;;;;5110932;27;20560;-67
2021/04/06 11:24:32;;;;;;;3.70;1.80;;;7.90;99.90;;;;;;5093142;28;20475;-64
2021/04/06 11:26:59;;;;;;;4.37;2.47;;;8.10;99.90;;;;;;5091859;28;20412;-64
2021/04/06 11:29:27;;;;;;;3.53;1.93;;;8.20;99.90;;;;;;5104909;28;20406;-65
2021/04/06 11:31:56;;;;;;;3.07;1.90;;;8.20;99.90;;;;;;5110650;28;20402;-65
2021/04/06 11:34:23;;;;;;;7.33;2.53;;;8.10;99.90;;;;;;5110615;28;20383;-65
2021/04/06 11:36:49;;;;;;;6.33;2.60;;;7.90;99.90;;;;;;5110974;28;20396;-66
2021/04/06 11:39:17;;;;;;;3.60;1.80;;;7.70;99.90;;;;;;5110646;28;20476;-65
2021/04/06 11:41:45;;;;;;;7.97;2.60;;;7.70;99.90;;;;;;5110113;28;20188;-65
2021/04/06 11:44:12;;;;;;;3.50;2.20;;;7.60;99.90;;;;;;5110547;28;20509;-65
2021/04/06 11:46:38;;;;;;;4.63;2.77;;;7.40;99.90;;;;;;5101289;28;20432;-65
2021/04/06 11:49:07;;;;;;;4.50;2.73;;;7.40;99.90;;;;;;5110376;28;20390;-65
2021/04/06 11:51:32;;;;;;;6.50;2.23;;;7.40;99.90;;;;;;5110694;28;20802;-65
2021/04/06 11:53:58;;;;;;;6.03;2.20;;;7.40;99.90;;;;;;5109296;28;20389;-65
2021/04/06 11:56:23;;;;;;;4.30;2.10;;;7.40;99.90;;;;;;5110641;28;20588;-65
2021/04/06 11:58:49;;;;;;;4.90;2.20;;;7.40;99.90;;;;;;5109139;28;20637;-65
2021/04/06 12:01:15;;;;;;;9.63;2.80;;;7.50;99.90;;;;;;5110184;28;20216;-65
2021/04/06 12:03:41;;;;;;;7.73;2.40;;;7.60;99.90;;;;;;5109980;28;20444;-67
2021/04/06 12:06:07;;;;;;;5.00;2.00;;;7.70;99.90;;;;;;5110326;28;20152;-67
2021/04/06 12:08:32;;;;;;;6.03;2.77;;;7.70;99.90;;;;;;5108866;28;20165;-67
2021/04/06 12:10:58;;;;;;;6.57;2.37;;;7.60;99.90;;;;;;5109898;28;20397;-67
2021/04/06 12:13:24;;;;;;;5.30;1.80;;;7.50;99.90;;;;;;5109931;28;20156;-67
2021/04/06 12:15:49;;;;;;;5.23;2.10;;;7.50;99.90;;;;;;5108983;28;20402;-64
2021/04/06 12:18:15;;;;;;;1.90;1.60;;;7.50;99.90;;;;;;5110268;28;20224;-65
2021/04/06 12:20:41;;;;;;;4.90;1.40;;;7.60;99.90;;;;;;5109622;28;20205;-65
2021/04/06 12:23:08;;;;;;;5.07;1.30;;;7.80;99.90;;;;;;5109945;28;20189;-65
2021/04/06 12:25:33;;;;;;;1.67;1.30;;;8.00;99.90;;;;;;5109630;28;20394;-65
2021/04/06 12:27:58;;;;;;;1.27;0.90;;;8.00;99.90;;;;;;5106900;28;20417;-64
2021/04/06 12:30:25;;;;;;;2.33;0.97;;;7.90;99.90;;;;;;5089219;28;20165;-67
2021/04/06 12:32:50;;;;;;;2.20;1.20;;;7.80;99.90;;;;;;5079507;28;20193;-67
2021/04/06 12:35:16;;;;;;;2.70;1.30;;;7.70;99.90;;;;;;5075973;28;20748;-67
2021/04/06 12:37:42;;;;;;;1.60;1.13;;;7.70;99.90;;;;;;5075622;28;20174;-67
2021/04/06 12:40:10;;;;;;;2.63;1.40;;;7.60;99.90;;;;;;5075509;28;20183;-67
2021/04/06 12:42:36;;;;;;;3.33;1.80;;;7.40;99.90;;;;;;5091196;28;20472;-64
2021/04/06 12:45:05;;;;;;;3.70;1.50;;;7.20;99.90;;;;;;5075541;28;20401;-65
2021/04/06 12:47:30;;;;;;;3.53;1.60;;;7.10;99.90;;;;;;5075634;28;20426;-65
2021/04/06 12:49:55;;;;;;;2.37;1.53;;;6.90;99.90;;;;;;5076280;28;20525;-65
2021/04/06 12:52:21;;;;;;;2.47;1.97;;;6.70;99.90;;;;;;5075286;28;20167;-65
2021/04/06 12:54:47;;;;;;;4.90;3.00;;;6.50;99.90;;;;;;5075621;28;20541;-65
2021/04/06 12:57:12;;;;;;;7.80;3.60;;;6.30;99.90;;;;;;5075315;28;20159;-65
2021/04/06 12:59:38;;;;;;;3.60;3.30;;;6.10;99.90;;;;;;5075407;28;20189;-65
2021/04/06 13:02:04;;;;;;;2.37;2.10;;;6.00;99.90;;;;;;5075597;28;20152;-65
2021/04/06 13:04:29;;;;;;;1.70;1.40;;;6.00;99.90;;;;;;5075189;28;20160;-64
2021/04/06 13:06:55;;;;;;;3.30;2.13;;;6.00;99.90;;;;;;5075655;28;20740;-65
2021/04/06 13:09:21;;;;;;;3.03;2.73;;;6.00;99.90;;;;;;5090695;28;20149;-65
2021/04/06 13:11:47;;;;;;;2.80;2.37;;;5.90;99.90;;;;;;5075156;28;20406;-65
2021/04/06 13:20:12;;;;;;;2.10;1.90;;;5.90;99.90;;;;;;5193192;27;20975;-65
2021/04/06 13:22:39;;;;;;;2.60;2.40;;;5.30;99.90;;;;;;5173186;27;20386;-65
2021/04/06 13:25:06;;;;;;;2.57;2.20;;;5.10;99.90;;;;;;5161291;27;20413;-65
2021/04/06 13:27:31;;;;;;;1.87;1.77;;;4.90;99.90;;;;;;5152097;27;20453;-65
2021/04/06 13:29:57;;;;;;;2.20;1.40;;;4.80;99.90;;;;;;5151910;27;20398;-65
2021/04/06 13:32:22;;;;;;;5.07;4.60;;;4.70;99.90;;;;;;5151847;27;20640;-65
2021/04/06 13:34:48;;;;;;;3.03;2.70;;;4.70;99.90;;;;;;5151770;27;20662;-65
2021/04/06 13:37:13;;;;;;;2.10;1.97;;;4.50;99.90;;;;;;5151881;27;20175;-65
2021/04/06 13:39:39;;;;;;;1.53;1.17;;;4.50;99.90;;;;;;5152133;27;20189;-65
2021/04/06 13:42:04;;;;;;;2.60;1.87;;;4.40;99.90;;;;;;5163216;27;20549;-65
2021/04/06 13:44:30;;;;;;;1.90;1.80;;;4.30;99.90;;;;;;5154945;27;20235;-65
2021/04/06 13:46:55;;;;;;;3.80;2.30;;;4.20;99.90;;;;;;5157174;27;20187;-65
2021/04/06 13:49:21;;;;;;;4.00;3.00;;;4.20;99.90;;;;;;5151692;27;20165;-65
2021/04/06 13:51:46;;;;;;;4.37;3.03;;;4.20;99.90;;;;;;5151560;27;20636;-65
2021/04/06 13:54:12;;;;;;;2.60;2.20;;;4.30;99.90;;;;;;5151843;27;20199;-65
2021/04/06 13:56:39;;;;;;;2.87;2.67;;;4.40;99.90;;;;;;5151483;27;20157;-66
2021/04/06 13:59:05;;;;;;;3.00;2.20;;;4.60;99.90;;;;;;5140230;27;20228;-66
2021/04/06 14:01:31;;;;;;;5.90;2.43;;;4.80;99.90;;;;;;5130918;28;20860;-65
2021/04/06 14:03:57;;;;;;;4.87;3.10;;;5.00;99.90;;;;;;5130707;28;20392;-65